sensor_id;sensor_type;location;lat;lon;timestamp;pressure;altitude;pressure_sealevel;temperature;humidity
7026;BME280;3554;42.132;24.786;2023-11-19T00:00:47;98939.50;;;7.04;100.00
7026;BME280;3554;42.132;24.786;2023-11-19T00:03:16;98965.03;;;7.18;100.00
7026;BME280;3554;42.132;24.786;2023-11-19T00:05:43;98946.38;;;7.05;100.00
7026;BME280;3554;42.132;24.786;2023-11-19T00:08:10;98930.13;;;6.99;100.00
7026;BME280;3554;42.132;24.786;2023-11-19T00:10:37;98965.03;;;7.18;100.00
7026;BME280;3554;42.132;24.786;2023-11-19T00:13:04;98973.81;;;7.15;100.00
7026;BME280;3554;42.132;24.786;2023-11-19T00:15:32;98990.19;;;7.19;100.00
7026;BME280;3554;42.132;24.786;2023-11-19T00:17:59;98932.19;;;6.89;100.00
7026;BME280;3554;42.132;24.786;2023-11-19T00:20:31;98970.56;;;7.09;100.00
7026;BME280;3554;42.132;24.786;2023-11-19T00:22:58;98987.66;;;7.16;100.00
7026;BME280;3554;42.132;24.786;2023-11-19T00:25:26;98991.00;;;7.19;100.00
7026;BME280;3554;42.132;24.786;2023-11-19T00:27:53;98998.06;;;7.16;100.00
7026;BME280;3554;42.132;24.786;2023-11-19T00:30:21;99001.94;;;7.04;100.00
7026;BME280;3554;42.132;24.786;2023-11-19T00:32:48;99000.97;;;7.07;100.00
7026;BME280;3554;42.132;24.786;2023-11-19T00:35:15;99001.59;;;7.15;100.00
7026;BME280;3554;42.132;24.786;2023-11-19T00:37:43;98897.22;;;6.45;100.00
7026;BME280;3554;42.132;24.786;2023-11-19T00:40:11;98983.84;;;7.00;100.00
7026;BME280;3554;42.132;24.786;2023-11-19T00:42:38;98999.00;;;7.15;100.00
7026;BME280;3554;42.132;24.786;2023-11-19T00:45:05;99005.81;;;7.19;100.00
7026;BME280;3554;42.132;24.786;2023-11-19T00:47:35;99003.50;;;7.10;100.00
7026;BME280;3554;42.132;24.786;2023-11-19T00:50:02;98993.72;;;7.16;100.00
7026;BME280;3554;42.132;24.786;2023-11-19T00:52:29;99010.16;;;7.18;100.00
7026;BME280;3554;42.132;24.786;2023-11-19T00:54:57;99014.34;;;7.22;100.00
7026;BME280;3554;42.132;24.786;2023-11-19T00:57:24;99015.41;;;7.17;100.00
7026;BME280;3554;42.132;24.786;2023-11-19T00:59:52;99014.44;;;7.19;100.00
7026;BME280;3554;42.132;24.786;2023-11-19T01:02:18;99009.41;;;7.15;100.00
7026;BME280;3554;42.132;24.786;2023-11-19T01:04:46;99009.22;;;7.19;100.00
7026;BME280;3554;42.132;24.786;2023-11-19T01:07:13;99017.97;;;7.18;100.00
7026;BME280;3554;42.132;24.786;2023-11-19T01:09:41;99020.75;;;7.12;100.00
7026;BME280;3554;42.132;24.786;2023-11-19T01:12:10;98985.19;;;6.87;100.00
7026;BME280;3554;42.132;24.786;2023-11-19T01:14:37;98996.78;;;7.03;100.00
7026;BME280;3554;42.132;24.786;2023-11-19T01:17:04;99013.97;;;7.08;100.00
7026;BME280;3554;42.132;24.786;2023-11-19T01:19:31;99027.66;;;7.13;100.00
7026;BME280;3554;42.132;24.786;2023-11-19T01:21:58;99021.72;;;7.10;100.00
7026;BME280;3554;42.132;24.786;2023-11-19T01:24:25;99019.06;;;7.11;100.00
7026;BME280;3554;42.132;24.786;2023-11-19T01:26:54;99018.44;;;7.03;100.00
7026;BME280;3554;42.132;24.786;2023-11-19T01:29:22;99018.25;;;7.09;100.00
7026;BME280;3554;42.132;24.786;2023-11-19T01:31:49;99002.69;;;7.08;100.00
7026;BME280;3554;42.132;24.786;2023-11-19T01:34:16;99030.44;;;7.07;100.00
7026;BME280;3554;42.132;24.786;2023-11-19T01:36:43;99003.56;;;7.08;100.00
7026;BME280;3554;42.132;24.786;2023-11-19T01:39:11;99025.13;;;7.10;100.00
7026;BME280;3554;42.132;24.786;2023-11-19T01:41:39;99023.41;;;7.11;100.00
7026;BME280;3554;42.132;24.786;2023-11-19T01:44:06;99008.59;;;7.13;100.00
7026;BME280;3554;42.132;24.786;2023-11-19T01:46:35;99034.63;;;7.13;100.00
7026;BME280;3554;42.132;24.786;2023-11-19T01:49:02;99020.91;;;7.08;100.00
7026;BME280;3554;42.132;24.786;2023-11-19T01:51:30;98997.19;;;7.17;100.00
7026;BME280;3554;42.132;24.786;2023-11-19T01:53:58;99020.63;;;7.17;100.00
7026;BME280;3554;42.132;24.786;2023-11-19T01:56:26;99035.53;;;7.12;100.00
7026;BME280;3554;42.132;24.786;2023-11-19T01:58:54;99017.38;;;7.09;100.00
7026;BME280;3554;42.132;24.786;2023-11-19T02:01:21;99028.56;;;7.12;100.00
7026;BME280;3554;42.132;24.786;2023-11-19T02:03:50;99046.75;;;7.12;100.00
7026;BME280;3554;42.132;24.786;2023-11-19T02:06:17;99045.97;;;7.10;100.00
7026;BME280;3554;42.132;24.786;2023-11-19T02:08:44;99041.47;;;7.15;100.00
7026;BME280;3554;42.132;24.786;2023-11-19T02:11:11;99042.59;;;7.08;100.00
7026;BME280;3554;42.132;24.786;2023-11-19T02:13:39;99026.97;;;7.08;100.00
7026;BME280;3554;42.132;24.786;2023-11-19T02:16:07;99023.56;;;7.06;100.00
7026;BME280;3554;42.132;24.786;2023-11-19T02:18:35;99010.97;;;6.93;100.00
7026;BME280;3554;42.132;24.786;2023-11-19T02:21:03;99036.81;;;6.99;100.00
7026;BME280;3554;42.132;24.786;2023-11-19T02:23:30;99007.16;;;7.04;100.00
7026;BME280;3554;42.132;24.786;2023-11-19T02:26:03;99038.22;;;7.09;100.00
7026;BME280;3554;42.132;24.786;2023-11-19T02:28:35;99062.66;;;7.05;100.00
7026;BME280;3554;42.132;24.786;2023-11-19T02:31:03;99060.13;;;7.02;100.00
7026;BME280;3554;42.132;24.786;2023-11-19T02:33:30;99061.91;;;7.00;100.00
7026;BME280;3554;42.132;24.786;2023-11-19T02:35:57;99028.78;;;7.06;100.00
7026;BME280;3554;42.132;24.786;2023-11-19T02:38:24;99053.00;;;7.07;100.00
7026;BME280;3554;42.132;24.786;2023-11-19T02:40:51;99053.06;;;7.05;100.00
7026;BME280;3554;42.132;24.786;2023-11-19T02:43:18;99005.97;;;6.87;100.00
7026;BME280;3554;42.132;24.786;2023-11-19T02:45:46;99048.66;;;7.07;100.00
7026;BME280;3554;42.132;24.786;2023-11-19T02:48:13;99052.22;;;7.05;100.00
7026;BME280;3554;42.132;24.786;2023-11-19T02:50:41;99059.22;;;7.03;100.00
7026;BME280;3554;42.132;24.786;2023-11-19T02:53:08;99047.91;;;7.04;100.00
7026;BME280;3554;42.132;24.786;2023-11-19T02:55:36;99052.13;;;7.08;100.00
7026;BME280;3554;42.132;24.786;2023-11-19T02:58:04;99036.94;;;6.94;100.00
7026;BME280;3554;42.132;24.786;2023-11-19T03:00:40;99046.94;;;7.08;100.00
7026;BME280;3554;42.132;24.786;2023-11-19T03:03:15;99028.94;;;7.00;100.00
7026;BME280;3554;42.132;24.786;2023-11-19T03:05:46;99033.22;;;7.03;100.00
7026;BME280;3554;42.132;24.786;2023-11-19T03:08:14;99029.69;;;7.04;100.00
7026;BME280;3554;42.132;24.786;2023-11-19T03:10:41;99050.69;;;6.98;100.00
7026;BME280;3554;42.132;24.786;2023-11-19T03:13:11;99005.88;;;6.90;100.00
7026;BME280;3554;42.132;24.786;2023-11-19T03:15:39;99007.56;;;6.91;100.00
7026;BME280;3554;42.132;24.786;2023-11-19T03:18:06;99022.41;;;6.87;100.00
7026;BME280;3554;42.132;24.786;2023-11-19T03:20:34;99007.66;;;6.88;100.00
7026;BME280;3554;42.132;24.786;2023-11-19T03:23:01;99025.94;;;6.86;100.00
7026;BME280;3554;42.132;24.786;2023-11-19T03:25:28;99027.78;;;6.83;100.00
7026;BME280;3554;42.132;24.786;2023-11-19T03:27:59;99040.09;;;6.78;100.00
7026;BME280;3554;42.132;24.786;2023-11-19T03:30:26;99036.91;;;6.68;100.00
7026;BME280;3554;42.132;24.786;2023-11-19T03:32:54;99019.03;;;6.58;100.00
7026;BME280;3554;42.132;24.786;2023-11-19T03:35:21;99042.19;;;6.65;100.00
7026;BME280;3554;42.132;24.786;2023-11-19T03:37:49;99041.28;;;6.66;100.00
7026;BME280;3554;42.132;24.786;2023-11-19T03:40:16;99021.34;;;6.67;100.00
7026;BME280;3554;42.132;24.786;2023-11-19T03:42:44;99034.34;;;6.67;100.00
7026;BME280;3554;42.132;24.786;2023-11-19T03:45:11;99024.97;;;6.61;100.00
7026;BME280;3554;42.132;24.786;2023-11-19T03:47:38;99042.91;;;6.70;100.00
7026;BME280;3554;42.132;24.786;2023-11-19T03:50:06;99048.75;;;6.77;100.00
7026;BME280;3554;42.132;24.786;2023-11-19T03:52:34;99054.78;;;6.79;100.00
7026;BME280;3554;42.132;24.786;2023-11-19T03:55:02;99027.91;;;6.78;100.00
7026;BME280;3554;42.132;24.786;2023-11-19T03:57:30;99045.34;;;6.75;100.00
7026;BME280;3554;42.132;24.786;2023-11-19T03:59:57;99043.84;;;6.68;100.00
7026;BME280;3554;42.132;24.786;2023-11-19T04:02:25;99066.03;;;6.79;100.00
7026;BME280;3554;42.132;24.786;2023-11-19T04:04:53;99065.94;;;6.82;100.00
7026;BME280;3554;42.132;24.786;2023-11-19T04:07:21;99065.88;;;6.84;100.00
7026;BME280;3554;42.132;24.786;2023-11-19T04:09:48;99062.25;;;6.89;100.00
7026;BME280;3554;42.132;24.786;2023-11-19T04:12:16;99072.56;;;6.92;100.00
7026;BME280;3554;42.132;24.786;2023-11-19T04:14:43;99060.44;;;6.91;100.00
7026;BME280;3554;42.132;24.786;2023-11-19T04:17:10;99077.69;;;6.95;100.00
7026;BME280;3554;42.132;24.786;2023-11-19T04:19:37;99068.97;;;6.96;100.00
7026;BME280;3554;42.132;24.786;2023-11-19T04:22:07;99070.72;;;6.96;100.00
7026;BME280;3554;42.132;24.786;2023-11-19T04:24:34;99070.81;;;6.93;100.00
7026;BME280;3554;42.132;24.786;2023-11-19T04:27:01;99085.59;;;6.92;100.00
7026;BME280;3554;42.132;24.786;2023-11-19T04:29:30;99083.91;;;6.90;100.00
7026;BME280;3554;42.132;24.786;2023-11-19T04:31:57;99075.19;;;6.91;100.00
7026;BME280;3554;42.132;24.786;2023-11-19T04:34:26;99100.44;;;6.89;100.00
7026;BME280;3554;42.132;24.786;2023-11-19T04:36:53;99097.06;;;6.85;100.00
7026;BME280;3554;42.132;24.786;2023-11-19T04:39:20;99097.19;;;6.81;100.00
7026;BME280;3554;42.132;24.786;2023-11-19T04:41:48;99090.63;;;6.69;100.00
7026;BME280;3554;42.132;24.786;2023-11-19T04:44:15;99094.53;;;6.55;100.00
7026;BME280;3554;42.132;24.786;2023-11-19T04:46:44;99097.28;;;6.48;100.00
7026;BME280;3554;42.132;24.786;2023-11-19T04:49:11;99088.78;;;6.43;100.00
7026;BME280;3554;42.132;24.786;2023-11-19T04:51:39;99102.47;;;6.48;100.00
7026;BME280;3554;42.132;24.786;2023-11-19T04:54:07;99087.28;;;6.35;100.00
7026;BME280;3554;42.132;24.786;2023-11-19T04:56:34;99092.13;;;6.47;100.00
7026;BME280;3554;42.132;24.786;2023-11-19T04:59:02;99099.16;;;6.43;100.00
7026;BME280;3554;42.132;24.786;2023-11-19T05:01:29;99089.53;;;6.47;100.00
7026;BME280;3554;42.132;24.786;2023-11-19T05:03:57;99067.31;;;6.37;100.00
7026;BME280;3554;42.132;24.786;2023-11-19T05:06:26;99017.75;;;6.14;100.00
7026;BME280;3554;42.132;24.786;2023-11-19T05:08:54;99012.63;;;5.79;100.00
7026;BME280;3554;42.132;24.786;2023-11-19T05:11:20;99083.72;;;6.39;100.00
7026;BME280;3554;42.132;24.786;2023-11-19T05:13:47;99089.69;;;6.42;100.00
7026;BME280;3554;42.132;24.786;2023-11-19T05:16:15;99110.53;;;6.39;100.00
7026;BME280;3554;42.132;24.786;2023-11-19T05:18:43;99122.81;;;6.34;100.00
7026;BME280;3554;42.132;24.786;2023-11-19T05:21:11;99111.59;;;6.32;100.00
7026;BME280;3554;42.132;24.786;2023-11-19T05:23:38;99115.88;;;6.35;100.00
7026;BME280;3554;42.132;24.786;2023-11-19T05:26:06;99111.69;;;6.29;100.00
7026;BME280;3554;42.132;24.786;2023-11-19T05:28:33;99104.78;;;6.28;100.00
7026;BME280;3554;42.132;24.786;2023-11-19T05:31:00;99128.22;;;6.27;100.00
7026;BME280;3554;42.132;24.786;2023-11-19T05:33:26;99122.97;;;6.28;100.00
7026;BME280;3554;42.132;24.786;2023-11-19T05:35:53;99126.47;;;6.27;100.00
7026;BME280;3554;42.132;24.786;2023-11-19T05:38:21;99120.50;;;6.24;100.00
7026;BME280;3554;42.132;24.786;2023-11-19T05:40:48;99112.09;;;6.14;100.00
7026;BME280;3554;42.132;24.786;2023-11-19T05:43:15;99133.59;;;6.21;100.00
7026;BME280;3554;42.132;24.786;2023-11-19T05:45:42;99109.25;;;6.23;100.00
7026;BME280;3554;42.132;24.786;2023-11-19T05:48:12;99088.84;;;6.10;100.00
7026;BME280;3554;42.132;24.786;2023-11-19T05:50:39;99111.22;;;6.15;100.00
7026;BME280;3554;42.132;24.786;2023-11-19T05:53:06;99102.38;;;6.22;100.00
7026;BME280;3554;42.132;24.786;2023-11-19T05:55:37;99130.81;;;6.27;100.00
7026;BME280;3554;42.132;24.786;2023-11-19T05:58:10;99112.63;;;6.27;100.00
7026;BME280;3554;42.132;24.786;2023-11-19T06:00:38;99130.56;;;6.36;100.00
7026;BME280;3554;42.132;24.786;2023-11-19T06:03:06;99070.28;;;6.23;100.00
7026;BME280;3554;42.132;24.786;2023-11-19T06:05:33;99111.91;;;6.53;100.00
7026;BME280;3554;42.132;24.786;2023-11-19T06:08:00;99114.34;;;6.59;100.00
7026;BME280;3554;42.132;24.786;2023-11-19T06:10:27;99122.66;;;6.70;100.00
7026;BME280;3554;42.132;24.786;2023-11-19T06:12:58;99129.28;;;6.81;100.00
7026;BME280;3554;42.132;24.786;2023-11-19T06:15:25;99137.13;;;6.78;100.00
7026;BME280;3554;42.132;24.786;2023-11-19T06:17:52;99150.75;;;6.88;100.00
7026;BME280;3554;42.132;24.786;2023-11-19T06:20:20;99143.69;;;6.91;100.00
7026;BME280;3554;42.132;24.786;2023-11-19T06:22:47;99163.53;;;6.95;100.00
7026;BME280;3554;42.132;24.786;2023-11-19T06:25:14;99166.03;;;6.98;100.00
7026;BME280;3554;42.132;24.786;2023-11-19T06:27:42;99130.41;;;7.00;100.00
7026;BME280;3554;42.132;24.786;2023-11-19T06:30:11;99176.16;;;7.07;100.00
7026;BME280;3554;42.132;24.786;2023-11-19T06:32:38;99173.56;;;7.07;100.00
7026;BME280;3554;42.132;24.786;2023-11-19T06:35:05;99176.97;;;7.09;100.00
7026;BME280;3554;42.132;24.786;2023-11-19T06:37:32;99174.22;;;7.15;100.00
7026;BME280;3554;42.132;24.786;2023-11-19T06:39:59;99187.72;;;7.28;100.00
7026;BME280;3554;42.132;24.786;2023-11-19T06:42:26;99184.13;;;7.30;100.00
7026;BME280;3554;42.132;24.786;2023-11-19T06:44:53;99176.16;;;7.36;100.00
7026;BME280;3554;42.132;24.786;2023-11-19T06:47:25;99189.38;;;7.58;100.00
7026;BME280;3554;42.132;24.786;2023-11-19T06:49:52;99174.28;;;7.68;100.00
7026;BME280;3554;42.132;24.786;2023-11-19T06:52:20;99197.25;;;7.55;100.00
7026;BME280;3554;42.132;24.786;2023-11-19T06:54:47;99198.56;;;7.68;100.00
7026;BME280;3554;42.132;24.786;2023-11-19T06:57:14;99182.31;;;7.62;100.00
7026;BME280;3554;42.132;24.786;2023-11-19T06:59:42;99177.97;;;7.60;100.00
7026;BME280;3554;42.132;24.786;2023-11-19T07:02:09;99166.00;;;7.55;100.00
7026;BME280;3554;42.132;24.786;2023-11-19T07:04:37;99164.31;;;7.54;100.00
7026;BME280;3554;42.132;24.786;2023-11-19T07:07:04;99163.97;;;7.65;100.00
7026;BME280;3554;42.132;24.786;2023-11-19T07:09:31;99160.44;;;7.66;100.00
7026;BME280;3554;42.132;24.786;2023-11-19T07:11:59;99180.22;;;7.71;100.00
7026;BME280;3554;42.132;24.786;2023-11-19T07:14:27;99179.13;;;7.78;100.00
7026;BME280;3554;42.132;24.786;2023-11-19T07:16:54;99193.53;;;7.90;100.00
7026;BME280;3554;42.132;24.786;2023-11-19T07:19:21;99197.53;;;8.00;100.00
7026;BME280;3554;42.132;24.786;2023-11-19T07:21:49;99213.84;;;8.06;100.00
7026;BME280;3554;42.132;24.786;2023-11-19T07:24:16;99251.91;;;8.10;100.00
7026;BME280;3554;42.132;24.786;2023-11-19T07:26:43;99254.91;;;8.26;100.00
7026;BME280;3554;42.132;24.786;2023-11-19T07:29:10;99227.75;;;8.31;100.00
7026;BME280;3554;42.132;24.786;2023-11-19T07:31:37;99244.50;;;8.24;100.00
7026;BME280;3554;42.132;24.786;2023-11-19T07:34:04;99195.69;;;8.29;100.00
7026;BME280;3554;42.132;24.786;2023-11-19T07:36:32;99226.00;;;8.32;100.00
7026;BME280;3554;42.132;24.786;2023-11-19T07:39:00;99237.63;;;8.48;100.00
7026;BME280;3554;42.132;24.786;2023-11-19T07:41:27;99221.06;;;8.23;100.00
7026;BME280;3554;42.132;24.786;2023-11-19T07:43:54;99242.91;;;8.20;100.00
7026;BME280;3554;42.132;24.786;2023-11-19T07:46:24;99296.31;;;8.61;100.00
7026;BME280;3554;42.132;24.786;2023-11-19T07:48:52;99286.94;;;8.55;100.00
7026;BME280;3554;42.132;24.786;2023-11-19T07:51:19;99250.34;;;8.32;100.00
7026;BME280;3554;42.132;24.786;2023-11-19T07:53:47;99292.47;;;8.71;100.00
7026;BME280;3554;42.132;24.786;2023-11-19T07:56:16;99279.59;;;8.67;100.00
7026;BME280;3554;42.132;24.786;2023-11-19T07:58:42;99273.78;;;8.58;100.00
7026;BME280;3554;42.132;24.786;2023-11-19T08:01:09;99282.91;;;8.72;100.00
7026;BME280;3554;42.132;24.786;2023-11-19T08:03:36;99278.56;;;8.71;100.00
7026;BME280;3554;42.132;24.786;2023-11-19T08:06:04;99270.16;;;8.62;100.00
7026;BME280;3554;42.132;24.786;2023-11-19T08:08:31;99284.38;;;8.79;100.00
7026;BME280;3554;42.132;24.786;2023-11-19T08:11:00;99273.50;;;8.91;100.00
7026;BME280;3554;42.132;24.786;2023-11-19T08:13:28;99283.75;;;8.97;100.00
7026;BME280;3554;42.132;24.786;2023-11-19T08:15:55;99277.88;;;8.90;100.00
7026;BME280;3554;42.132;24.786;2023-11-19T08:18:22;99306.19;;;9.02;100.00
7026;BME280;3554;42.132;24.786;2023-11-19T08:20:48;99285.44;;;8.98;100.00
7026;BME280;3554;42.132;24.786;2023-11-19T08:23:18;99303.28;;;9.10;100.00
7026;BME280;3554;42.132;24.786;2023-11-19T08:25:46;99290.41;;;9.05;100.00
7026;BME280;3554;42.132;24.786;2023-11-19T08:28:13;99311.34;;;9.04;100.00
7026;BME280;3554;42.132;24.786;2023-11-19T08:30:41;99310.72;;;9.20;100.00
7026;BME280;3554;42.132;24.786;2023-11-19T08:33:09;99305.38;;;9.00;100.00
7026;BME280;3554;42.132;24.786;2023-11-19T08:35:37;99300.09;;;9.02;100.00
7026;BME280;3554;42.132;24.786;2023-11-19T08:38:03;99275.28;;;9.13;100.00
7026;BME280;3554;42.132;24.786;2023-11-19T08:40:30;99279.69;;;9.13;100.00
7026;BME280;3554;42.132;24.786;2023-11-19T08:42:57;99289.59;;;9.03;100.00
7026;BME280;3554;42.132;24.786;2023-11-19T08:45:24;99271.81;;;8.90;100.00
7026;BME280;3554;42.132;24.786;2023-11-19T08:47:53;99278.78;;;8.89;100.00
7026;BME280;3554;42.132;24.786;2023-11-19T08:50:20;99288.34;;;9.13;100.00
7026;BME280;3554;42.132;24.786;2023-11-19T08:52:46;99296.31;;;9.10;100.00
7026;BME280;3554;42.132;24.786;2023-11-19T08:55:13;99283.75;;;8.97;100.00
7026;BME280;3554;42.132;24.786;2023-11-19T08:57:40;99308.13;;;8.96;100.00
7026;BME280;3554;42.132;24.786;2023-11-19T09:00:08;99286.31;;;8.74;100.00
7026;BME280;3554;42.132;24.786;2023-11-19T09:02:35;99182.94;;;8.20;100.00
7026;BME280;3554;42.132;24.786;2023-11-19T09:05:04;99292.72;;;8.63;100.00
7026;BME280;3554;42.132;24.786;2023-11-19T09:07:32;99307.25;;;8.97;100.00
7026;BME280;3554;42.132;24.786;2023-11-19T09:09:59;99295.03;;;8.97;100.00
7026;BME280;3554;42.132;24.786;2023-11-19T09:12:26;99296.47;;;9.06;100.00
7026;BME280;3554;42.132;24.786;2023-11-19T09:14:53;99288.84;;;9.00;100.00
7026;BME280;3554;42.132;24.786;2023-11-19T09:17:20;99314.34;;;8.93;100.00
7026;BME280;3554;42.132;24.786;2023-11-19T09:19:47;99308.09;;;9.22;100.00
7026;BME280;3554;42.132;24.786;2023-11-19T09:22:15;99313.88;;;9.30;100.00
7026;BME280;3554;42.132;24.786;2023-11-19T09:24:42;99335.69;;;9.52;100.00
7026;BME280;3554;42.132;24.786;2023-11-19T09:27:10;99339.53;;;9.65;100.00
7026;BME280;3554;42.132;24.786;2023-11-19T09:30:13;99329.72;;;9.48;100.00
7026;BME280;3554;42.132;24.786;2023-11-19T09:32:40;99340.97;;;9.50;100.00
7026;BME280;3554;42.132;24.786;2023-11-19T09:35:07;99336.03;;;9.66;100.00
7026;BME280;3554;42.132;24.786;2023-11-19T09:37:37;99328.94;;;9.69;100.00
7026;BME280;3554;42.132;24.786;2023-11-19T09:40:05;99318.81;;;9.60;100.00
7026;BME280;3554;42.132;24.786;2023-11-19T09:42:42;99298.03;;;9.57;100.00
7026;BME280;3554;42.132;24.786;2023-11-19T09:45:13;99288.41;;;9.35;100.00
7026;BME280;3554;42.132;24.786;2023-11-19T09:47:40;99268.78;;;9.25;100.00
7026;BME280;3554;42.132;24.786;2023-11-19T09:50:08;99255.50;;;9.31;100.00
7026;BME280;3554;42.132;24.786;2023-11-19T09:52:37;99252.84;;;9.09;100.00
7026;BME280;3554;42.132;24.786;2023-11-19T09:55:04;99285.66;;;9.16;100.00
7026;BME280;3554;42.132;24.786;2023-11-19T09:57:34;99327.06;;;9.50;100.00
7026;BME280;3554;42.132;24.786;2023-11-19T10:00:03;99285.72;;;9.61;100.00
7026;BME280;3554;42.132;24.786;2023-11-19T10:02:33;99331.09;;;9.58;100.00
7026;BME280;3554;42.132;24.786;2023-11-19T10:05:04;99322.84;;;9.69;100.00
7026;BME280;3554;42.132;24.786;2023-11-19T10:07:31;99273.25;;;9.67;100.00
7026;BME280;3554;42.132;24.786;2023-11-19T10:10:00;99308.09;;;9.68;100.00
7026;BME280;3554;42.132;24.786;2023-11-19T10:12:27;99295.56;;;9.53;100.00
7026;BME280;3554;42.132;24.786;2023-11-19T10:14:56;99294.28;;;9.41;100.00
7026;BME280;3554;42.132;24.786;2023-11-19T10:17:27;99296.56;;;9.50;100.00
7026;BME280;3554;42.132;24.786;2023-11-19T10:19:55;99288.88;;;9.69;100.00
7026;BME280;3554;42.132;24.786;2023-11-19T10:22:24;99295.84;;;9.68;100.00
7026;BME280;3554;42.132;24.786;2023-11-19T10:24:52;99302.22;;;9.61;100.00
7026;BME280;3554;42.132;24.786;2023-11-19T10:27:23;99286.28;;;9.46;100.00
7026;BME280;3554;42.132;24.786;2023-11-19T10:29:50;99288.19;;;9.64;100.00
7026;BME280;3554;42.132;24.786;2023-11-19T10:32:17;99306.75;;;9.56;100.00
7026;BME280;3554;42.132;24.786;2023-11-19T10:34:44;99292.56;;;9.63;100.00
7026;BME280;3554;42.132;24.786;2023-11-19T10:37:27;99268.59;;;9.52;100.00
7026;BME280;3554;42.132;24.786;2023-11-19T10:39:55;99271.34;;;9.49;100.00
7026;BME280;3554;42.132;24.786;2023-11-19T10:42:23;99260.81;;;9.51;100.00
7026;BME280;3554;42.132;24.786;2023-11-19T10:44:50;99263.28;;;9.55;100.00
7026;BME280;3554;42.132;24.786;2023-11-19T10:47:19;99268.75;;;9.71;100.00
7026;BME280;3554;42.132;24.786;2023-11-19T10:49:46;99235.75;;;9.68;100.00
7026;BME280;3554;42.132;24.786;2023-11-19T10:52:17;99237.97;;;9.56;100.00
7026;BME280;3554;42.132;24.786;2023-11-19T10:54:49;99260.53;;;9.58;100.00
7026;BME280;3554;42.132;24.786;2023-11-19T10:57:19;99252.09;;;9.52;100.00
7026;BME280;3554;42.132;24.786;2023-11-19T10:59:49;99217.34;;;9.27;100.00
7026;BME280;3554;42.132;24.786;2023-11-19T11:02:19;99225.28;;;9.47;100.00
7026;BME280;3554;42.132;24.786;2023-11-19T11:04:49;99256.44;;;9.51;100.00
7026;BME280;3554;42.132;24.786;2023-11-19T11:07:19;99262.56;;;9.73;100.00
7026;BME280;3554;42.132;24.786;2023-11-19T11:09:51;99254.75;;;9.72;100.00
7026;BME280;3554;42.132;24.786;2023-11-19T11:12:21;99255.81;;;9.68;100.00
7026;BME280;3554;42.132;24.786;2023-11-19T11:14:50;99281.41;;;9.82;100.00
7026;BME280;3554;42.132;24.786;2023-11-19T11:17:20;99206.41;;;9.62;100.00
7026;BME280;3554;42.132;24.786;2023-11-19T11:19:50;99268.94;;;9.88;100.00
7026;BME280;3554;42.132;24.786;2023-11-19T11:22:18;99270.81;;;10.06;100.00
7026;BME280;3554;42.132;24.786;2023-11-19T11:27:58;99247.16;;;10.11;100.00
7026;BME280;3554;42.132;24.786;2023-11-19T11:30:42;99244.28;;;10.17;100.00
7026;BME280;3554;42.132;24.786;2023-11-19T11:33:27;99223.97;;;10.23;100.00
7026;BME280;3554;42.132;24.786;2023-11-19T11:36:06;99241.19;;;10.29;100.00
7026;BME280;3554;42.132;24.786;2023-11-19T11:38:37;99238.94;;;10.20;100.00
7026;BME280;3554;42.132;24.786;2023-11-19T11:41:18;99220.16;;;10.10;100.00
7026;BME280;3554;42.132;24.786;2023-11-19T11:43:48;99200.53;;;9.99;100.00
7026;BME280;3554;42.132;24.786;2023-11-19T11:49:26;99223.19;;;10.21;100.00
7026;BME280;3554;42.132;24.786;2023-11-19T11:52:02;99212.78;;;10.20;100.00
7026;BME280;3554;42.132;24.786;2023-11-19T11:54:29;99217.09;;;10.21;100.00
7026;BME280;3554;42.132;24.786;2023-11-19T11:57:08;99196.16;;;10.21;100.00
7026;BME280;3554;42.132;24.786;2023-11-19T11:59:48;99083.09;;;9.32;100.00
7026;BME280;3554;42.132;24.786;2023-11-19T12:02:16;99195.19;;;10.02;100.00
7026;BME280;3554;42.132;24.786;2023-11-19T12:04:48;99200.09;;;10.11;100.00
7026;BME280;3554;42.132;24.786;2023-11-19T12:07:17;99187.66;;;10.16;100.00
7026;BME280;3554;42.132;24.786;2023-11-19T12:09:47;99190.94;;;10.21;100.00
7026;BME280;3554;42.132;24.786;2023-11-19T12:12:19;99193.41;;;10.24;100.00
7026;BME280;3554;42.132;24.786;2023-11-19T12:15:06;99165.44;;;10.04;100.00
7026;BME280;3554;42.132;24.786;2023-11-19T12:17:42;99174.75;;;10.11;100.00
7026;BME280;3554;42.132;24.786;2023-11-19T12:20:12;99194.47;;;10.20;100.00
7026;BME280;3554;42.132;24.786;2023-11-19T12:22:40;99199.75;;;10.38;100.00
7026;BME280;3554;42.132;24.786;2023-11-19T12:25:08;99172.94;;;10.53;100.00
7026;BME280;3554;42.132;24.786;2023-11-19T12:27:36;99178.25;;;10.32;100.00
7026;BME280;3554;42.132;24.786;2023-11-19T12:30:04;99132.16;;;10.09;100.00
7026;BME280;3554;42.132;24.786;2023-11-19T12:32:40;99160.00;;;10.10;100.00
7026;BME280;3554;42.132;24.786;2023-11-19T12:35:08;99142.28;;;10.17;100.00
7026;BME280;3554;42.132;24.786;2023-11-19T12:37:45;99154.25;;;10.22;100.00
7026;BME280;3554;42.132;24.786;2023-11-19T12:40:14;99134.94;;;10.05;100.00
7026;BME280;3554;42.132;24.786;2023-11-19T12:42:41;99141.63;;;10.12;100.00
7026;BME280;3554;42.132;24.786;2023-11-19T12:45:09;99155.19;;;10.21;100.00
7026;BME280;3554;42.132;24.786;2023-11-19T12:47:38;99130.84;;;10.19;100.00
7026;BME280;3554;42.132;24.786;2023-11-19T12:50:06;99134.44;;;10.17;100.00
7026;BME280;3554;42.132;24.786;2023-11-19T12:52:34;99148.69;;;10.30;100.00
7026;BME280;3554;42.132;24.786;2023-11-19T12:55:02;99152.88;;;10.34;100.00
7026;BME280;3554;42.132;24.786;2023-11-19T12:57:36;99139.28;;;10.26;100.00
7026;BME280;3554;42.132;24.786;2023-11-19T13:00:04;99139.28;;;10.04;100.00
7026;BME280;3554;42.132;24.786;2023-11-19T13:02:48;99145.25;;;10.09;100.00
7026;BME280;3554;42.132;24.786;2023-11-19T13:05:26;99143.09;;;9.97;100.00
7026;BME280;3554;42.132;24.786;2023-11-19T13:08:00;99150.75;;;10.02;100.00
7026;BME280;3554;42.132;24.786;2023-11-19T13:10:29;99129.22;;;9.95;100.00
7026;BME280;3554;42.132;24.786;2023-11-19T13:13:03;99152.16;;;10.10;100.00
7026;BME280;3554;42.132;24.786;2023-11-19T13:15:31;99115.09;;;9.99;100.00
7026;BME280;3554;42.132;24.786;2023-11-19T13:17:58;99133.91;;;10.09;100.00
7026;BME280;3554;42.132;24.786;2023-11-19T13:20:24;99122.34;;;10.14;100.00
7026;BME280;3554;42.132;24.786;2023-11-19T13:22:56;99111.38;;;10.05;100.00